sensor_id;sensor_type;location;lat;lon;timestamp;P1;durP1;ratioP1;P2;durP2;ratioP2
40515;SDS011;26216;53.724;9.898;2023-07-22T00:01:00;3.13;;;2.10;;
40515;SDS011;26216;53.724;9.898;2023-07-22T00:03:26;3.53;;;1.95;;
40515;SDS011;26216;53.724;9.898;2023-07-22T00:06:05;2.63;;;1.92;;
40515;SDS011;26216;53.724;9.898;2023-07-22T00:08:36;3.00;;;1.83;;
40515;SDS011;26216;53.724;9.898;2023-07-22T00:11:06;3.13;;;2.58;;
40515;SDS011;26216;53.724;9.898;2023-07-22T00:13:32;5.13;;;2.40;;
40515;SDS011;26216;53.724;9.898;2023-07-22T00:15:59;2.97;;;2.08;;
40515;SDS011;26216;53.724;9.898;2023-07-22T00:18:25;3.55;;;2.30;;
40515;SDS011;26216;53.724;9.898;2023-07-22T00:20:56;4.07;;;2.70;;
40515;SDS011;26216;53.724;9.898;2023-07-22T00:23:22;3.17;;;2.35;;
40515;SDS011;26216;53.724;9.898;2023-07-22T00:25:48;3.42;;;2.72;;
40515;SDS011;26216;53.724;9.898;2023-07-22T00:28:14;4.28;;;2.30;;
40515;SDS011;26216;53.724;9.898;2023-07-22T00:30:40;3.80;;;2.40;;
40515;SDS011;26216;53.724;9.898;2023-07-22T00:33:06;4.03;;;2.60;;
40515;SDS011;26216;53.724;9.898;2023-07-22T00:35:33;3.75;;;2.97;;
40515;SDS011;26216;53.724;9.898;2023-07-22T00:37:59;3.88;;;3.00;;
40515;SDS011;26216;53.724;9.898;2023-07-22T00:40:26;3.75;;;2.85;;
40515;SDS011;26216;53.724;9.898;2023-07-22T00:42:52;4.50;;;3.20;;
40515;SDS011;26216;53.724;9.898;2023-07-22T00:45:18;5.07;;;3.50;;
40515;SDS011;26216;53.724;9.898;2023-07-22T00:47:44;5.55;;;3.75;;
40515;SDS011;26216;53.724;9.898;2023-07-22T00:50:11;4.88;;;3.13;;
40515;SDS011;26216;53.724;9.898;2023-07-22T00:52:38;3.60;;;2.60;;
40515;SDS011;26216;53.724;9.898;2023-07-22T00:55:04;4.57;;;3.20;;
40515;SDS011;26216;53.724;9.898;2023-07-22T00:57:30;3.55;;;2.70;;
40515;SDS011;26216;53.724;9.898;2023-07-22T00:59:56;4.80;;;3.05;;
40515;SDS011;26216;53.724;9.898;2023-07-22T01:02:22;3.38;;;2.42;;
40515;SDS011;26216;53.724;9.898;2023-07-22T01:04:49;3.90;;;3.05;;
40515;SDS011;26216;53.724;9.898;2023-07-22T01:07:17;3.88;;;2.85;;
40515;SDS011;26216;53.724;9.898;2023-07-22T01:09:43;4.20;;;3.20;;
40515;SDS011;26216;53.724;9.898;2023-07-22T01:12:10;3.70;;;2.88;;
40515;SDS011;26216;53.724;9.898;2023-07-22T01:14:37;3.63;;;2.72;;
40515;SDS011;26216;53.724;9.898;2023-07-22T01:17:05;4.43;;;2.63;;
40515;SDS011;26216;53.724;9.898;2023-07-22T01:19:32;3.22;;;2.40;;
40515;SDS011;26216;53.724;9.898;2023-07-22T01:22:05;4.47;;;2.90;;
40515;SDS011;26216;53.724;9.898;2023-07-22T01:24:34;3.85;;;2.72;;
40515;SDS011;26216;53.724;9.898;2023-07-22T01:27:01;4.10;;;3.17;;
40515;SDS011;26216;53.724;9.898;2023-07-22T01:29:28;4.20;;;3.00;;
40515;SDS011;26216;53.724;9.898;2023-07-22T01:31:54;4.07;;;2.90;;
40515;SDS011;26216;53.724;9.898;2023-07-22T01:34:21;3.60;;;2.63;;
40515;SDS011;26216;53.724;9.898;2023-07-22T01:36:47;4.35;;;3.10;;
40515;SDS011;26216;53.724;9.898;2023-07-22T01:39:14;3.78;;;2.97;;
40515;SDS011;26216;53.724;9.898;2023-07-22T01:41:40;5.57;;;3.08;;
40515;SDS011;26216;53.724;9.898;2023-07-22T01:44:06;4.68;;;3.42;;
40515;SDS011;26216;53.724;9.898;2023-07-22T01:46:33;4.18;;;2.75;;
40515;SDS011;26216;53.724;9.898;2023-07-22T01:48:59;4.10;;;3.33;;
40515;SDS011;26216;53.724;9.898;2023-07-22T01:51:27;4.30;;;2.97;;
40515;SDS011;26216;53.724;9.898;2023-07-22T01:53:52;3.60;;;2.78;;
40515;SDS011;26216;53.724;9.898;2023-07-22T01:56:18;7.07;;;3.83;;
40515;SDS011;26216;53.724;9.898;2023-07-22T01:58:47;4.93;;;3.42;;
40515;SDS011;26216;53.724;9.898;2023-07-22T02:01:13;3.75;;;2.88;;
40515;SDS011;26216;53.724;9.898;2023-07-22T02:03:41;4.93;;;3.63;;
40515;SDS011;26216;53.724;9.898;2023-07-22T02:06:07;5.43;;;3.95;;
40515;SDS011;26216;53.724;9.898;2023-07-22T02:08:33;4.15;;;3.33;;
40515;SDS011;26216;53.724;9.898;2023-07-22T02:11:02;4.60;;;3.20;;
40515;SDS011;26216;53.724;9.898;2023-07-22T02:13:29;3.95;;;3.17;;
40515;SDS011;26216;53.724;9.898;2023-07-22T02:15:55;4.40;;;3.15;;
40515;SDS011;26216;53.724;9.898;2023-07-22T02:18:21;4.63;;;3.15;;
40515;SDS011;26216;53.724;9.898;2023-07-22T02:20:47;4.93;;;3.67;;
40515;SDS011;26216;53.724;9.898;2023-07-22T02:23:13;4.53;;;3.20;;
40515;SDS011;26216;53.724;9.898;2023-07-22T02:25:39;4.32;;;3.03;;
40515;SDS011;26216;53.724;9.898;2023-07-22T02:28:05;4.45;;;3.20;;
40515;SDS011;26216;53.724;9.898;2023-07-22T02:30:34;5.55;;;3.00;;
40515;SDS011;26216;53.724;9.898;2023-07-22T02:33:01;3.65;;;3.10;;
40515;SDS011;26216;53.724;9.898;2023-07-22T02:35:28;4.40;;;3.33;;
40515;SDS011;26216;53.724;9.898;2023-07-22T02:37:54;4.80;;;2.90;;
40515;SDS011;26216;53.724;9.898;2023-07-22T02:40:19;4.13;;;2.97;;
40515;SDS011;26216;53.724;9.898;2023-07-22T02:42:45;4.13;;;3.00;;
40515;SDS011;26216;53.724;9.898;2023-07-22T02:45:11;4.65;;;3.35;;
40515;SDS011;26216;53.724;9.898;2023-07-22T02:47:37;4.40;;;3.33;;
40515;SDS011;26216;53.724;9.898;2023-07-22T02:50:05;3.55;;;2.60;;
40515;SDS011;26216;53.724;9.898;2023-07-22T02:52:32;3.50;;;2.80;;
40515;SDS011;26216;53.724;9.898;2023-07-22T02:55:08;5.00;;;3.15;;
40515;SDS011;26216;53.724;9.898;2023-07-22T02:57:34;4.40;;;2.88;;
40515;SDS011;26216;53.724;9.898;2023-07-22T03:00:01;4.82;;;3.10;;
40515;SDS011;26216;53.724;9.898;2023-07-22T03:04:57;4.13;;;2.55;;
40515;SDS011;26216;53.724;9.898;2023-07-22T03:07:23;3.90;;;2.65;;
40515;SDS011;26216;53.724;9.898;2023-07-22T03:09:51;4.22;;;2.97;;
40515;SDS011;26216;53.724;9.898;2023-07-22T03:12:17;4.28;;;2.80;;
40515;SDS011;26216;53.724;9.898;2023-07-22T03:14:43;4.82;;;2.92;;
40515;SDS011;26216;53.724;9.898;2023-07-22T03:17:09;3.78;;;2.70;;
40515;SDS011;26216;53.724;9.898;2023-07-22T03:19:35;4.50;;;2.95;;
40515;SDS011;26216;53.724;9.898;2023-07-22T03:22:01;4.00;;;2.85;;
40515;SDS011;26216;53.724;9.898;2023-07-22T03:24:27;4.43;;;2.58;;
40515;SDS011;26216;53.724;9.898;2023-07-22T03:26:53;4.93;;;3.05;;
40515;SDS011;26216;53.724;9.898;2023-07-22T03:29:19;4.00;;;2.83;;
40515;SDS011;26216;53.724;9.898;2023-07-22T03:31:45;3.25;;;2.50;;
40515;SDS011;26216;53.724;9.898;2023-07-22T03:34:11;3.80;;;2.90;;
40515;SDS011;26216;53.724;9.898;2023-07-22T03:36:36;3.72;;;2.70;;
40515;SDS011;26216;53.724;9.898;2023-07-22T03:39:03;3.75;;;2.60;;
40515;SDS011;26216;53.724;9.898;2023-07-22T03:41:28;3.30;;;2.42;;
40515;SDS011;26216;53.724;9.898;2023-07-22T03:44:11;4.32;;;3.00;;
40515;SDS011;26216;53.724;9.898;2023-07-22T03:46:38;4.97;;;3.17;;
40515;SDS011;26216;53.724;9.898;2023-07-22T03:49:04;3.83;;;2.72;;
40515;SDS011;26216;53.724;9.898;2023-07-22T03:51:30;4.03;;;2.70;;
40515;SDS011;26216;53.724;9.898;2023-07-22T03:53:56;5.68;;;2.78;;
40515;SDS011;26216;53.724;9.898;2023-07-22T03:56:22;3.63;;;2.50;;
40515;SDS011;26216;53.724;9.898;2023-07-22T03:58:52;6.35;;;3.30;;
40515;SDS011;26216;53.724;9.898;2023-07-22T04:01:18;3.75;;;2.78;;
40515;SDS011;26216;53.724;9.898;2023-07-22T04:03:45;5.45;;;3.35;;
40515;SDS011;26216;53.724;9.898;2023-07-22T04:06:11;3.65;;;2.50;;
40515;SDS011;26216;53.724;9.898;2023-07-22T04:08:36;5.75;;;2.78;;
40515;SDS011;26216;53.724;9.898;2023-07-22T04:11:02;3.15;;;2.60;;
40515;SDS011;26216;53.724;9.898;2023-07-22T04:13:29;4.38;;;3.22;;
40515;SDS011;26216;53.724;9.898;2023-07-22T04:15:54;5.45;;;2.85;;
40515;SDS011;26216;53.724;9.898;2023-07-22T04:18:21;4.10;;;2.30;;
40515;SDS011;26216;53.724;9.898;2023-07-22T04:20:48;3.65;;;2.55;;
40515;SDS011;26216;53.724;9.898;2023-07-22T04:23:20;4.63;;;2.83;;
40515;SDS011;26216;53.724;9.898;2023-07-22T04:25:46;5.15;;;3.13;;
40515;SDS011;26216;53.724;9.898;2023-07-22T04:28:11;5.85;;;2.83;;
40515;SDS011;26216;53.724;9.898;2023-07-22T04:30:38;3.72;;;2.63;;
40515;SDS011;26216;53.724;9.898;2023-07-22T04:33:05;4.93;;;3.17;;
40515;SDS011;26216;53.724;9.898;2023-07-22T04:35:31;5.32;;;3.60;;
40515;SDS011;26216;53.724;9.898;2023-07-22T04:37:58;5.55;;;3.53;;
40515;SDS011;26216;53.724;9.898;2023-07-22T04:40:24;4.53;;;3.00;;
40515;SDS011;26216;53.724;9.898;2023-07-22T04:42:50;4.00;;;2.78;;
40515;SDS011;26216;53.724;9.898;2023-07-22T04:45:17;5.45;;;3.25;;
40515;SDS011;26216;53.724;9.898;2023-07-22T04:47:46;6.88;;;3.35;;
40515;SDS011;26216;53.724;9.898;2023-07-22T04:50:12;7.70;;;3.55;;
40515;SDS011;26216;53.724;9.898;2023-07-22T04:52:38;5.05;;;3.13;;
40515;SDS011;26216;53.724;9.898;2023-07-22T04:55:07;5.18;;;3.42;;
40515;SDS011;26216;53.724;9.898;2023-07-22T04:57:36;4.82;;;3.38;;
40515;SDS011;26216;53.724;9.898;2023-07-22T05:00:13;4.70;;;2.75;;
40515;SDS011;26216;53.724;9.898;2023-07-22T05:02:41;4.63;;;2.90;;
40515;SDS011;26216;53.724;9.898;2023-07-22T05:05:11;5.20;;;3.00;;
40515;SDS011;26216;53.724;9.898;2023-07-22T05:07:37;4.88;;;2.90;;
40515;SDS011;26216;53.724;9.898;2023-07-22T05:10:03;6.20;;;3.00;;
40515;SDS011;26216;53.724;9.898;2023-07-22T05:12:30;5.07;;;3.13;;
40515;SDS011;26216;53.724;9.898;2023-07-22T05:14:56;5.18;;;3.00;;
40515;SDS011;26216;53.724;9.898;2023-07-22T05:17:22;5.20;;;3.22;;
40515;SDS011;26216;53.724;9.898;2023-07-22T05:19:48;4.13;;;2.75;;
40515;SDS011;26216;53.724;9.898;2023-07-22T05:22:14;4.10;;;2.97;;
40515;SDS011;26216;53.724;9.898;2023-07-22T05:24:40;4.38;;;2.90;;
40515;SDS011;26216;53.724;9.898;2023-07-22T05:27:06;5.53;;;3.50;;
40515;SDS011;26216;53.724;9.898;2023-07-22T05:29:31;4.78;;;3.42;;
40515;SDS011;26216;53.724;9.898;2023-07-22T05:31:57;5.32;;;3.50;;
40515;SDS011;26216;53.724;9.898;2023-07-22T05:34:23;5.90;;;3.47;;
40515;SDS011;26216;53.724;9.898;2023-07-22T05:36:49;4.13;;;3.15;;
40515;SDS011;26216;53.724;9.898;2023-07-22T05:39:15;5.32;;;3.10;;
40515;SDS011;26216;53.724;9.898;2023-07-22T05:41:43;4.45;;;2.80;;
40515;SDS011;26216;53.724;9.898;2023-07-22T05:44:09;5.85;;;3.03;;
40515;SDS011;26216;53.724;9.898;2023-07-22T05:46:35;3.83;;;2.30;;
40515;SDS011;26216;53.724;9.898;2023-07-22T05:49:01;4.68;;;2.65;;
40515;SDS011;26216;53.724;9.898;2023-07-22T05:51:27;3.90;;;2.72;;
40515;SDS011;26216;53.724;9.898;2023-07-22T05:53:53;3.00;;;2.15;;
40515;SDS011;26216;53.724;9.898;2023-07-22T05:56:19;4.22;;;2.70;;
40515;SDS011;26216;53.724;9.898;2023-07-22T05:58:44;3.72;;;2.42;;
40515;SDS011;26216;53.724;9.898;2023-07-22T06:01:10;4.55;;;2.88;;
40515;SDS011;26216;53.724;9.898;2023-07-22T06:03:37;3.55;;;2.40;;
40515;SDS011;26216;53.724;9.898;2023-07-22T06:06:02;4.13;;;2.63;;
40515;SDS011;26216;53.724;9.898;2023-07-22T06:08:29;4.85;;;2.75;;
40515;SDS011;26216;53.724;9.898;2023-07-22T06:10:55;5.03;;;3.35;;
40515;SDS011;26216;53.724;9.898;2023-07-22T06:13:22;3.50;;;2.35;;
40515;SDS011;26216;53.724;9.898;2023-07-22T06:15:47;3.72;;;2.00;;
40515;SDS011;26216;53.724;9.898;2023-07-22T06:18:13;3.53;;;2.20;;
40515;SDS011;26216;53.724;9.898;2023-07-22T06:20:39;3.60;;;2.05;;
40515;SDS011;26216;53.724;9.898;2023-07-22T06:23:05;4.15;;;2.40;;
40515;SDS011;26216;53.724;9.898;2023-07-22T06:25:31;3.15;;;2.03;;
40515;SDS011;26216;53.724;9.898;2023-07-22T06:27:57;3.78;;;2.10;;
40515;SDS011;26216;53.724;9.898;2023-07-22T06:30:22;3.30;;;2.13;;
40515;SDS011;26216;53.724;9.898;2023-07-22T06:32:48;3.15;;;2.17;;
40515;SDS011;26216;53.724;9.898;2023-07-22T06:35:14;3.92;;;2.10;;
40515;SDS011;26216;53.724;9.898;2023-07-22T06:37:40;3.97;;;2.50;;
40515;SDS011;26216;53.724;9.898;2023-07-22T06:40:06;3.78;;;2.20;;
40515;SDS011;26216;53.724;9.898;2023-07-22T06:42:32;3.63;;;1.95;;
40515;SDS011;26216;53.724;9.898;2023-07-22T06:44:58;3.38;;;2.05;;
40515;SDS011;26216;53.724;9.898;2023-07-22T06:47:24;3.05;;;1.90;;
40515;SDS011;26216;53.724;9.898;2023-07-22T06:49:50;2.20;;;1.60;;
40515;SDS011;26216;53.724;9.898;2023-07-22T06:52:18;2.35;;;1.60;;
40515;SDS011;26216;53.724;9.898;2023-07-22T06:54:44;3.17;;;1.75;;
40515;SDS011;26216;53.724;9.898;2023-07-22T06:57:10;3.85;;;2.00;;
40515;SDS011;26216;53.724;9.898;2023-07-22T06:59:36;3.45;;;2.03;;
40515;SDS011;26216;53.724;9.898;2023-07-22T07:02:02;2.72;;;1.73;;
40515;SDS011;26216;53.724;9.898;2023-07-22T07:04:30;3.22;;;1.88;;
40515;SDS011;26216;53.724;9.898;2023-07-22T07:06:56;2.22;;;1.40;;
40515;SDS011;26216;53.724;9.898;2023-07-22T07:09:22;4.07;;;1.98;;
40515;SDS011;26216;53.724;9.898;2023-07-22T07:11:48;2.15;;;1.70;;
40515;SDS011;26216;53.724;9.898;2023-07-22T07:14:14;2.50;;;1.65;;
40515;SDS011;26216;53.724;9.898;2023-07-22T07:16:40;2.22;;;1.60;;
40515;SDS011;26216;53.724;9.898;2023-07-22T07:19:05;2.67;;;1.73;;
40515;SDS011;26216;53.724;9.898;2023-07-22T07:21:31;6.03;;;1.80;;
40515;SDS011;26216;53.724;9.898;2023-07-22T07:23:57;1.88;;;1.20;;
40515;SDS011;26216;53.724;9.898;2023-07-22T07:26:23;2.85;;;1.52;;
40515;SDS011;26216;53.724;9.898;2023-07-22T07:28:49;3.22;;;1.65;;
40515;SDS011;26216;53.724;9.898;2023-07-22T07:31:16;3.63;;;1.92;;
40515;SDS011;26216;53.724;9.898;2023-07-22T07:33:42;2.63;;;1.50;;
40515;SDS011;26216;53.724;9.898;2023-07-22T07:36:08;2.40;;;1.60;;
40515;SDS011;26216;53.724;9.898;2023-07-22T07:38:34;3.15;;;1.50;;
40515;SDS011;26216;53.724;9.898;2023-07-22T07:41:02;2.03;;;1.40;;
40515;SDS011;26216;53.724;9.898;2023-07-22T07:43:29;2.38;;;1.50;;
40515;SDS011;26216;53.724;9.898;2023-07-22T07:48:39;3.45;;;1.70;;
40515;SDS011;26216;53.724;9.898;2023-07-22T07:51:05;2.78;;;1.33;;
40515;SDS011;26216;53.724;9.898;2023-07-22T07:53:31;2.13;;;1.40;;
40515;SDS011;26216;53.724;9.898;2023-07-22T07:55:57;2.60;;;1.38;;
40515;SDS011;26216;53.724;9.898;2023-07-22T07:58:22;2.33;;;1.27;;
40515;SDS011;26216;53.724;9.898;2023-07-22T08:00:49;3.58;;;1.10;;
40515;SDS011;26216;53.724;9.898;2023-07-22T08:03:14;2.13;;;1.00;;
40515;SDS011;26216;53.724;9.898;2023-07-22T08:05:40;1.52;;;1.00;;
40515;SDS011;26216;53.724;9.898;2023-07-22T08:08:06;1.73;;;1.05;;
40515;SDS011;26216;53.724;9.898;2023-07-22T08:10:32;1.48;;;0.93;;
40515;SDS011;26216;53.724;9.898;2023-07-22T08:12:58;1.58;;;0.90;;
40515;SDS011;26216;53.724;9.898;2023-07-22T08:15:24;2.72;;;1.15;;
40515;SDS011;26216;53.724;9.898;2023-07-22T08:17:50;2.30;;;0.90;;
40515;SDS011;26216;53.724;9.898;2023-07-22T08:20:16;3.55;;;1.25;;
40515;SDS011;26216;53.724;9.898;2023-07-22T08:22:42;1.92;;;1.10;;
40515;SDS011;26216;53.724;9.898;2023-07-22T08:25:07;2.13;;;1.20;;
40515;SDS011;26216;53.724;9.898;2023-07-22T08:27:33;4.18;;;1.40;;
40515;SDS011;26216;53.724;9.898;2023-07-22T08:29:59;3.05;;;0.85;;
40515;SDS011;26216;53.724;9.898;2023-07-22T08:32:45;1.30;;;0.73;;
40515;SDS011;26216;53.724;9.898;2023-07-22T08:35:11;1.08;;;0.70;;
40515;SDS011;26216;53.724;9.898;2023-07-22T08:37:37;1.38;;;0.80;;
40515;SDS011;26216;53.724;9.898;2023-07-22T08:40:03;1.00;;;0.80;;
40515;SDS011;26216;53.724;9.898;2023-07-22T08:42:30;1.20;;;0.70;;
40515;SDS011;26216;53.724;9.898;2023-07-22T08:44:59;1.48;;;0.82;;
40515;SDS011;26216;53.724;9.898;2023-07-22T08:47:28;1.25;;;0.88;;
40515;SDS011;26216;53.724;9.898;2023-07-22T08:49:55;1.17;;;0.77;;
40515;SDS011;26216;53.724;9.898;2023-07-22T08:54:51;2.53;;;0.98;;
40515;SDS011;26216;53.724;9.898;2023-07-22T08:57:18;1.80;;;0.88;;
40515;SDS011;26216;53.724;9.898;2023-07-22T08:59:45;2.47;;;1.05;;
40515;SDS011;26216;53.724;9.898;2023-07-22T09:02:12;1.75;;;0.77;;
40515;SDS011;26216;53.724;9.898;2023-07-22T09:04:40;1.50;;;0.93;;
40515;SDS011;26216;53.724;9.898;2023-07-22T09:07:10;1.40;;;0.60;;
40515;SDS011;26216;53.724;9.898;2023-07-22T09:09:37;0.70;;;0.60;;
40515;SDS011;26216;53.724;9.898;2023-07-22T09:12:03;1.20;;;0.88;;
40515;SDS011;26216;53.724;9.898;2023-07-22T09:14:31;1.83;;;0.98;;
40515;SDS011;26216;53.724;9.898;2023-07-22T09:16:59;1.40;;;0.90;;
40515;SDS011;26216;53.724;9.898;2023-07-22T09:19:25;11.93;;;2.00;;
40515;SDS011;26216;53.724;9.898;2023-07-22T09:21:52;2.42;;;0.90;;
40515;SDS011;26216;53.724;9.898;2023-07-22T09:24:21;1.75;;;0.82;;
40515;SDS011;26216;53.724;9.898;2023-07-22T09:26:51;1.35;;;0.70;;
40515;SDS011;26216;53.724;9.898;2023-07-22T09:29:17;1.38;;;0.70;;
40515;SDS011;26216;53.724;9.898;2023-07-22T09:31:50;0.90;;;0.80;;
40515;SDS011;26216;53.724;9.898;2023-07-22T09:34:16;2.05;;;1.30;;
40515;SDS011;26216;53.724;9.898;2023-07-22T09:36:50;1.48;;;0.70;;
40515;SDS011;26216;53.724;9.898;2023-07-22T09:39:20;0.82;;;0.60;;
40515;SDS011;26216;53.724;9.898;2023-07-22T09:41:47;0.60;;;0.50;;
40515;SDS011;26216;53.724;9.898;2023-07-22T09:44:13;1.65;;;0.82;;
40515;SDS011;26216;53.724;9.898;2023-07-22T09:46:39;1.83;;;0.77;;
40515;SDS011;26216;53.724;9.898;2023-07-22T09:49:07;1.27;;;0.85;;
40515;SDS011;26216;53.724;9.898;2023-07-22T09:51:38;2.33;;;0.73;;
40515;SDS011;26216;53.724;9.898;2023-07-22T09:54:05;1.80;;;0.70;;
40515;SDS011;26216;53.724;9.898;2023-07-22T09:56:32;2.75;;;0.80;;
40515;SDS011;26216;53.724;9.898;2023-07-22T09:59:08;1.23;;;0.85;;
40515;SDS011;26216;53.724;9.898;2023-07-22T10:01:37;2.38;;;1.25;;
40515;SDS011;26216;53.724;9.898;2023-07-22T10:04:04;1.27;;;0.90;;
40515;SDS011;26216;53.724;9.898;2023-07-22T10:06:33;1.00;;;0.77;;
40515;SDS011;26216;53.724;9.898;2023-07-22T10:09:03;3.03;;;0.90;;
40515;SDS011;26216;53.724;9.898;2023-07-22T10:11:33;1.38;;;0.80;;
40515;SDS011;26216;53.724;9.898;2023-07-22T10:14:03;0.73;;;0.60;;
40515;SDS011;26216;53.724;9.898;2023-07-22T10:16:30;0.88;;;0.70;;
40515;SDS011;26216;53.724;9.898;2023-07-22T10:18:57;0.95;;;0.75;;
40515;SDS011;26216;53.724;9.898;2023-07-22T10:21:24;1.55;;;0.70;;
40515;SDS011;26216;53.724;9.898;2023-07-22T10:23:51;1.63;;;0.75;;
40515;SDS011;26216;53.724;9.898;2023-07-22T10:26:26;1.45;;;0.68;;
40515;SDS011;26216;53.724;9.898;2023-07-22T10:28:53;1.10;;;0.80;;
40515;SDS011;26216;53.724;9.898;2023-07-22T10:31:22;1.50;;;0.80;;
40515;SDS011;26216;53.724;9.898;2023-07-22T10:33:47;2.20;;;0.90;;
40515;SDS011;26216;53.724;9.898;2023-07-22T10:36:14;1.38;;;0.80;;
40515;SDS011;26216;53.724;9.898;2023-07-22T10:38:41;1.70;;;1.00;;
40515;SDS011;26216;53.724;9.898;2023-07-22T10:41:13;2.55;;;1.23;;
40515;SDS011;26216;53.724;9.898;2023-07-22T10:43:42;0.77;;;0.60;;
40515;SDS011;26216;53.724;9.898;2023-07-22T10:46:20;1.05;;;0.73;;
40515;SDS011;26216;53.724;9.898;2023-07-22T10:49:14;1.05;;;0.70;;
40515;SDS011;26216;53.724;9.898;2023-07-22T10:51:45;1.55;;;0.90;;
40515;SDS011;26216;53.724;9.898;2023-07-22T10:54:14;1.27;;;0.90;;
40515;SDS011;26216;53.724;9.898;2023-07-22T10:56:41;1.52;;;0.93;;
40515;SDS011;26216;53.724;9.898;2023-07-22T10:59:10;1.35;;;0.80;;
40515;SDS011;26216;53.724;9.898;2023-07-22T11:01:37;2.05;;;0.90;;
40515;SDS011;26216;53.724;9.898;2023-07-22T11:06:58;1.83;;;0.90;;
40515;SDS011;26216;53.724;9.898;2023-07-22T11:12:16;1.02;;;0.82;;
40515;SDS011;26216;53.724;9.898;2023-07-22T11:14:50;1.30;;;0.90;;
40515;SDS011;26216;53.724;9.898;2023-07-22T11:17:18;1.38;;;1.00;;
40515;SDS011;26216;53.724;9.898;2023-07-22T11:19:57;2.05;;;1.10;;
40515;SDS011;26216;53.724;9.898;2023-07-22T11:22:23;2.55;;;1.20;;
40515;SDS011;26216;53.724;9.898;2023-07-22T11:24:49;1.55;;;1.00;;
40515;SDS011;26216;53.724;9.898;2023-07-22T11:27:15;2.15;;;1.20;;
40515;SDS011;26216;53.724;9.898;2023-07-22T11:29:41;2.08;;;1.33;;
40515;SDS011;26216;53.724;9.898;2023-07-22T11:32:14;1.77;;;1.15;;
40515;SDS011;26216;53.724;9.898;2023-07-22T11:34:46;2.15;;;1.13;;
40515;SDS011;26216;53.724;9.898;2023-07-22T11:37:13;1.65;;;1.30;;
40515;SDS011;26216;53.724;9.898;2023-07-22T11:39:40;2.50;;;1.60;;
40515;SDS011;26216;53.724;9.898;2023-07-22T11:42:07;1.98;;;1.30;;
40515;SDS011;26216;53.724;9.898;2023-07-22T11:44:33;2.30;;;1.58;;
40515;SDS011;26216;53.724;9.898;2023-07-22T11:47:03;2.40;;;1.50;;
40515;SDS011;26216;53.724;9.898;2023-07-22T11:54:29;2.70;;;1.70;;
40515;SDS011;26216;53.724;9.898;2023-07-22T11:56:57;2.97;;;1.60;;
40515;SDS011;26216;53.724;9.898;2023-07-22T11:59:33;2.58;;;1.60;;
40515;SDS011;26216;53.724;9.898;2023-07-22T12:02:03;3.38;;;1.80;;
40515;SDS011;26216;53.724;9.898;2023-07-22T12:04:33;2.30;;;1.70;;
40515;SDS011;26216;53.724;9.898;2023-07-22T12:06:59;2.35;;;1.88;;
40515;SDS011;26216;53.724;9.898;2023-07-22T12:09:26;2.28;;;1.80;;
40515;SDS011;26216;53.724;9.898;2023-07-22T12:11:56;2.92;;;2.00;;
40515;SDS011;26216;53.724;9.898;2023-07-22T12:14:23;2.60;;;2.00;;
40515;SDS011;26216;53.724;9.898;2023-07-22T12:16:52;2.47;;;2.00;;
40515;SDS011;26216;53.724;9.898;2023-07-22T12:19:24;2.33;;;1.70;;
40515;SDS011;26216;53.724;9.898;2023-07-22T12:21:54;2.97;;;2.20;;
40515;SDS011;26216;53.724;9.898;2023-07-22T12:24:20;2.60;;;1.70;;
40515;SDS011;26216;53.724;9.898;2023-07-22T12:26:46;5.57;;;2.00;;
40515;SDS011;26216;53.724;9.898;2023-07-22T12:29:32;3.67;;;2.28;;
40515;SDS011;26216;53.724;9.898;2023-07-22T12:31:58;2.83;;;2.13;;
40515;SDS011;26216;53.724;9.898;2023-07-22T12:34:24;2.80;;;1.77;;
40515;SDS011;26216;53.724;9.898;2023-07-22T12:36:49;2.70;;;2.00;;
40515;SDS011;26216;53.724;9.898;2023-07-22T12:39:15;3.05;;;2.05;;
40515;SDS011;26216;53.724;9.898;2023-07-22T12:41:41;4.90;;;2.50;;
40515;SDS011;26216;53.724;9.898;2023-07-22T12:44:07;3.03;;;2.20;;
40515;SDS011;26216;53.724;9.898;2023-07-22T12:46:33;3.60;;;2.47;;
40515;SDS011;26216;53.724;9.898;2023-07-22T12:48:59;3.05;;;2.50;;
40515;SDS011;26216;53.724;9.898;2023-07-22T12:51:25;3.50;;;2.47;;
40515;SDS011;26216;53.724;9.898;2023-07-22T12:53:51;3.35;;;2.38;;
40515;SDS011;26216;53.724;9.898;2023-07-22T12:56:17;3.05;;;2.22;;
40515;SDS011;26216;53.724;9.898;2023-07-22T12:58:43;2.72;;;2.33;;
40515;SDS011;26216;53.724;9.898;2023-07-22T13:01:09;3.20;;;2.55;;
40515;SDS011;26216;53.724;9.898;2023-07-22T13:03:35;3.25;;;2.28;;
40515;SDS011;26216;53.724;9.898;2023-07-22T13:06:01;3.00;;;2.00;;
40515;SDS011;26216;53.724;9.898;2023-07-22T13:08:26;4.82;;;3.13;;
40515;SDS011;26216;53.724;9.898;2023-07-22T13:10:52;3.28;;;2.55;;
40515;SDS011;26216;53.724;9.898;2023-07-22T13:13:18;3.75;;;2.63;;
40515;SDS011;26216;53.724;9.898;2023-07-22T13:15:44;3.75;;;2.40;;
40515;SDS011;26216;53.724;9.898;2023-07-22T13:18:10;3.22;;;2.20;;
40515;SDS011;26216;53.724;9.898;2023-07-22T13:20:38;3.00;;;2.35;;
40515;SDS011;26216;53.724;9.898;2023-07-22T13:23:05;2.60;;;2.10;;
40515;SDS011;26216;53.724;9.898;2023-07-22T13:25:31;3.17;;;2.50;;
40515;SDS011;26216;53.724;9.898;2023-07-22T13:27:56;4.03;;;2.97;;
40515;SDS011;26216;53.724;9.898;2023-07-22T13:30:22;4.53;;;3.13;;
40515;SDS011;26216;53.724;9.898;2023-07-22T13:32:48;4.60;;;3.42;;
40515;SDS011;26216;53.724;9.898;2023-07-22T13:35:15;8.02;;;6.85;;
40515;SDS011;26216;53.724;9.898;2023-07-22T13:37:40;8.40;;;6.38;;
40515;SDS011;26216;53.724;9.898;2023-07-22T13:40:07;8.43;;;7.15;;
40515;SDS011;26216;53.724;9.898;2023-07-22T13:42:35;5.88;;;4.70;;
40515;SDS011;26216;53.724;9.898;2023-07-22T13:45:03;4.65;;;3.78;;
40515;SDS011;26216;53.724;9.898;2023-07-22T13:47:29;3.40;;;2.80;;
40515;SDS011;26216;53.724;9.898;2023-07-22T13:49:55;3.70;;;2.92;;
40515;SDS011;26216;53.724;9.898;2023-07-22T13:52:20;3.75;;;2.90;;
40515;SDS011;26216;53.724;9.898;2023-07-22T13:54:46;3.65;;;2.85;;
40515;SDS011;26216;53.724;9.898;2023-07-22T13:57:12;5.13;;;3.40;;
40515;SDS011;26216;53.724;9.898;2023-07-22T13:59:38;4.00;;;3.20;;
40515;SDS011;26216;53.724;9.898;2023-07-22T14:02:04;3.88;;;2.90;;
40515;SDS011;26216;53.724;9.898;2023-07-22T14:04:30;4.72;;;2.95;;
40515;SDS011;26216;53.724;9.898;2023-07-22T14:06:56;4.68;;;3.20;;
40515;SDS011;26216;53.724;9.898;2023-07-22T14:09:22;4.50;;;3.35;;
40515;SDS011;26216;53.724;9.898;2023-07-22T14:11:48;3.92;;;2.80;;
40515;SDS011;26216;53.724;9.898;2023-07-22T14:14:14;4.05;;;2.80;;
40515;SDS011;26216;53.724;9.898;2023-07-22T14:16:40;4.50;;;2.90;;
40515;SDS011;26216;53.724;9.898;2023-07-22T14:19:06;3.53;;;2.60;;
40515;SDS011;26216;53.724;9.898;2023-07-22T14:21:32;3.08;;;2.47;;
40515;SDS011;26216;53.724;9.898;2023-07-22T14:23:58;3.28;;;2.30;;
40515;SDS011;26216;53.724;9.898;2023-07-22T14:26:24;3.70;;;2.40;;
40515;SDS011;26216;53.724;9.898;2023-07-22T14:28:50;3.88;;;2.95;;
40515;SDS011;26216;53.724;9.898;2023-07-22T14:31:16;3.60;;;2.90;;
40515;SDS011;26216;53.724;9.898;2023-07-22T14:33:42;3.25;;;2.60;;
40515;SDS011;26216;53.724;9.898;2023-07-22T14:36:08;5.93;;;2.72;;
40515;SDS011;26216;53.724;9.898;2023-07-22T14:38:33;3.10;;;2.72;;
40515;SDS011;26216;53.724;9.898;2023-07-22T14:40:59;3.10;;;2.63;;
40515;SDS011;26216;53.724;9.898;2023-07-22T14:43:25;3.38;;;2.65;;
40515;SDS011;26216;53.724;9.898;2023-07-22T14:45:52;4.32;;;3.20;;
40515;SDS011;26216;53.724;9.898;2023-07-22T14:48:19;4.32;;;3.50;;
40515;SDS011;26216;53.724;9.898;2023-07-22T14:50:45;3.20;;;2.67;;
40515;SDS011;26216;53.724;9.898;2023-07-22T14:53:11;4.30;;;2.72;;
40515;SDS011;26216;53.724;9.898;2023-07-22T14:55:37;3.28;;;2.50;;
40515;SDS011;26216;53.724;9.898;2023-07-22T14:58:04;3.95;;;2.97;;
40515;SDS011;26216;53.724;9.898;2023-07-22T15:00:30;4.50;;;3.35;;
40515;SDS011;26216;53.724;9.898;2023-07-22T15:03:04;4.57;;;3.38;;
40515;SDS011;26216;53.724;9.898;2023-07-22T15:05:30;3.80;;;2.88;;